Terminal Aerodrome Forecast
Issued by NWS

Home | Current Version | Previous Version | Text Only | Print | Product List | Glossary Off
Versions: 1 2 3 4 5 6 7 8 9 10 11 12 13 14 15 16

000
FTUS43 KICT 021127
TAFHUT
TAF
KHUT 021127Z 0212/0312 15005KT P6SM VCSH BKN120
     FM021600 18018G25KT P6SM SCT100
     FM030000 16012KT P6SM SCT250
     FM030600 17013KT P6SM SKC=

USA.gov is the U.S. government's official web portal to all federal, state and local government web resources and services.